Time;durP1;ratioP1;P1;durP2;ratioP2;P2;SDS_P1;SDS_P2;PMS_P1;PMS_P2;Temp;Humidity;BMP_temperature;BMP_pressure;BME280_temperature;BME280_humidity;BME280_pressure;Samples;Min_cycle;Max_cycle;Signal;HPM_P1;HPM_P2
2022/11/30 00:01:27;;;;;;;9.90;5.82;;;6.20;99.90;;;;;;5026926;28;20215;-71
2022/11/30 00:03:55;;;;;;;11.13;5.50;;;6.20;99.90;;;;;;5026629;28;20575;-71
2022/11/30 00:06:23;;;;;;;8.88;5.07;;;6.20;99.90;;;;;;5025716;28;20228;-71
2022/11/30 00:08:53;;;;;;;12.80;5.25;;;6.10;99.90;;;;;;5029081;28;20205;-72
2022/11/30 00:11:21;;;;;;;5.70;4.13;;;6.10;99.90;;;;;;5030780;28;20211;-72
2022/11/30 00:13:48;;;;;;;11.00;5.40;;;6.10;99.90;;;;;;5030193;28;20235;-71
2022/11/30 00:16:15;;;;;;;5.47;4.72;;;6.10;99.90;;;;;;5030347;28;20201;-72
2022/11/30 00:18:42;;;;;;;8.88;4.80;;;6.10;99.90;;;;;;5015865;28;20196;-71
2022/11/30 00:21:12;;;;;;;9.05;5.05;;;6.10;99.90;;;;;;5030279;28;20195;-71
2022/11/30 00:23:40;;;;;;;12.23;6.20;;;6.20;99.90;;;;;;5029911;28;20189;-72
2022/11/30 00:26:10;;;;;;;9.82;5.32;;;6.10;99.90;;;;;;5029745;28;20231;-71
2022/11/30 00:28:38;;;;;;;9.23;6.20;;;6.10;99.90;;;;;;5029529;28;20632;-71
2022/11/30 00:31:06;;;;;;;10.20;4.07;;;6.10;99.90;;;;;;5030361;28;20584;-71
2022/11/30 00:33:35;;;;;;;5.65;4.40;;;6.10;99.90;;;;;;5029135;28;20196;-71
2022/11/30 00:36:03;;;;;;;7.25;4.45;;;6.10;99.90;;;;;;5029612;28;20296;-71
2022/11/30 00:38:32;;;;;;;10.10;4.53;;;6.10;99.90;;;;;;5029585;28;20569;-72
2022/11/30 00:40:58;;;;;;;6.05;3.90;;;6.10;99.90;;;;;;5028914;28;20207;-71
2022/11/30 00:43:27;;;;;;;7.18;5.80;;;6.10;99.90;;;;;;5029737;28;20208;-71
2022/11/30 00:45:54;;;;;;;5.10;3.97;;;6.10;99.90;;;;;;5029554;28;20240;-71
2022/11/30 00:48:20;;;;;;;23.17;7.28;;;6.10;99.90;;;;;;5029419;28;20211;-71
2022/11/30 00:50:48;;;;;;;6.93;4.10;;;6.10;99.90;;;;;;5029115;28;20203;-70
2022/11/30 00:53:15;;;;;;;8.15;4.82;;;6.10;99.90;;;;;;5029493;28;20200;-70
2022/11/30 00:55:43;;;;;;;7.25;6.55;;;6.10;99.90;;;;;;5029283;28;20203;-71
2022/11/30 00:58:10;;;;;;;7.90;4.28;;;6.10;99.90;;;;;;5029288;28;20215;-71
2022/11/30 01:00:38;;;;;;;5.63;4.07;;;6.20;99.90;;;;;;5028865;28;20197;-70
2022/11/30 01:03:05;;;;;;;5.55;4.80;;;6.10;99.90;;;;;;5028649;28;20216;-71
2022/11/30 01:05:33;;;;;;;4.78;4.38;;;6.10;99.90;;;;;;5029118;28;20224;-71
2022/11/30 01:08:00;;;;;;;9.25;4.03;;;6.10;99.90;;;;;;5029126;28;20221;-70
2022/11/30 01:10:27;;;;;;;8.55;4.80;;;6.10;99.90;;;;;;5028736;28;20211;-71
2022/11/30 01:12:54;;;;;;;7.22;5.32;;;6.10;99.90;;;;;;5028761;28;20203;-70
2022/11/30 01:15:22;;;;;;;8.70;5.10;;;6.10;99.90;;;;;;5029251;28;20197;-70
2022/11/30 01:17:50;;;;;;;7.97;4.40;;;6.10;99.90;;;;;;5028721;28;20204;-71
2022/11/30 01:20:17;;;;;;;7.40;4.55;;;6.10;99.90;;;;;;5027772;28;20197;-71
2022/11/30 01:22:44;;;;;;;7.18;4.72;;;6.10;99.90;;;;;;5029265;28;20192;-72
2022/11/30 01:25:10;;;;;;;5.20;4.43;;;6.10;99.90;;;;;;5028521;28;20268;-70
2022/11/30 01:27:37;;;;;;;6.82;5.32;;;6.10;99.90;;;;;;5027874;28;20230;-71
2022/11/30 01:30:05;;;;;;;8.55;5.25;;;6.10;99.90;;;;;;5028599;28;20224;-71
2022/11/30 01:32:32;;;;;;;3.85;2.67;;;6.10;99.90;;;;;;5029032;28;20215;-71
2022/11/30 01:35:00;;;;;;;5.10;3.55;;;6.10;99.90;;;;;;5028941;28;20203;-70
2022/11/30 01:37:29;;;;;;;8.98;5.60;;;6.10;99.90;;;;;;5028065;28;20196;-71
2022/11/30 01:39:56;;;;;;;8.77;6.80;;;6.10;99.90;;;;;;5028398;28;20266;-70
2022/11/30 01:42:23;;;;;;;10.45;4.70;;;6.00;99.90;;;;;;5028359;28;20200;-70
2022/11/30 01:44:55;;;;;;;8.98;6.35;;;6.00;99.90;;;;;;5028302;28;20196;-71
2022/11/30 01:47:32;;;;;;;5.85;4.03;;;6.00;99.90;;;;;;5028293;28;20761;-72
2022/11/30 01:50:05;;;;;;;10.95;4.05;;;6.10;99.90;;;;;;5020844;28;20188;-70
2022/11/30 01:52:35;;;;;;;8.60;6.28;;;6.00;99.90;;;;;;5027930;28;20197;-71
2022/11/30 01:55:14;;;;;;;4.85;3.88;;;6.10;99.90;;;;;;5028486;28;20550;-70
2022/11/30 01:57:44;;;;;;;4.25;3.58;;;6.00;99.90;;;;;;5028140;28;20228;-72
2022/11/30 02:00:14;;;;;;;3.72;3.40;;;6.00;99.90;;;;;;5028396;28;20213;-71
2022/11/30 02:02:47;;;;;;;4.20;3.80;;;6.00;99.90;;;;;;5024994;28;20688;-72
2022/11/30 02:05:17;;;;;;;10.10;4.22;;;5.90;99.90;;;;;;5021576;28;20203;-71
2022/11/30 02:07:44;;;;;;;11.32;4.65;;;6.00;99.90;;;;;;5027645;28;20240;-71
2022/11/30 02:10:15;;;;;;;6.80;3.88;;;6.00;99.90;;;;;;5027975;28;20287;-70
2022/11/30 02:12:56;;;;;;;7.03;4.40;;;6.00;99.90;;;;;;5028191;28;20674;-71
2022/11/30 02:15:31;;;;;;;3.88;3.50;;;6.00;99.90;;;;;;5028148;28;20838;-71
2022/11/30 02:18:10;;;;;;;6.20;3.58;;;6.00;99.90;;;;;;5027140;28;20196;-72
2022/11/30 02:21:03;;;;;;;5.15;2.90;;;6.00;99.90;;;;;;5028107;28;20580;-71
2022/11/30 02:23:49;;;;;;;5.18;3.15;;;6.00;99.90;;;;;;5027707;28;20752;-71
2022/11/30 02:26:58;;;;;;;3.17;2.05;;;6.00;99.90;;;;;;5027458;28;20231;-72
2022/11/30 02:29:29;;;;;;;9.20;4.03;;;6.00;99.90;;;;;;5027675;28;20258;-71
2022/11/30 02:32:02;;;;;;;5.90;4.25;;;6.00;99.90;;;;;;5028019;28;20211;-72
2022/11/30 02:34:33;;;;;;;5.63;4.10;;;6.00;99.90;;;;;;5027719;28;20289;-71
2022/11/30 02:37:01;;;;;;;6.63;5.03;;;6.00;99.90;;;;;;5027918;28;20282;-72
2022/11/30 02:39:30;;;;;;;6.15;2.60;;;6.00;99.90;;;;;;5021184;28;20224;-71
2022/11/30 02:41:58;;;;;;;9.60;3.75;;;6.00;99.90;;;;;;5027454;28;20661;-70
2022/11/30 02:44:28;;;;;;;6.25;3.95;;;6.00;99.90;;;;;;5027761;28;20204;-70
2022/11/30 02:47:14;;;;;;;8.98;3.65;;;6.00;99.90;;;;;;5027348;28;20243;-70
2022/11/30 02:49:48;;;;;;;7.43;4.18;;;6.00;99.90;;;;;;5027287;28;20291;-71
2022/11/30 02:52:19;;;;;;;5.68;4.30;;;6.00;99.90;;;;;;5024057;28;20200;-71
2022/11/30 02:54:47;;;;;;;6.65;4.20;;;6.00;99.90;;;;;;5027696;28;20204;-71
2022/11/30 02:57:15;;;;;;;3.35;2.88;;;6.00;99.90;;;;;;5026665;28;20673;-71
2022/11/30 02:59:45;;;;;;;6.53;5.15;;;6.00;99.90;;;;;;5027772;28;20200;-71
2022/11/30 03:02:14;;;;;;;5.70;3.15;;;5.90;99.90;;;;;;5026649;28;20200;-71
2022/11/30 03:04:40;;;;;;;9.38;4.15;;;6.00;99.90;;;;;;5027685;28;20208;-71
2022/11/30 03:07:07;;;;;;;9.88;6.25;;;6.00;99.90;;;;;;5026414;28;20307;-72
2022/11/30 03:09:35;;;;;;;7.72;5.30;;;6.00;99.90;;;;;;5026949;28;20200;-71
2022/11/30 03:12:02;;;;;;;5.80;4.10;;;6.00;99.90;;;;;;5027212;28;20199;-71
2022/11/30 03:14:30;;;;;;;5.07;4.18;;;6.00;99.90;;;;;;5027401;28;20200;-71
2022/11/30 03:16:59;;;;;;;4.93;3.70;;;6.00;99.90;;;;;;5027110;28;20201;-72
2022/11/30 03:19:27;;;;;;;5.47;4.05;;;6.00;99.90;;;;;;5027321;28;20200;-70
2022/11/30 03:21:55;;;;;;;6.97;3.80;;;6.00;99.90;;;;;;5027328;28;20357;-73
2022/11/30 03:24:23;;;;;;;5.90;3.55;;;6.00;99.90;;;;;;5026943;28;20204;-71
2022/11/30 03:26:51;;;;;;;10.40;6.75;;;6.00;99.90;;;;;;5026573;28;20221;-70
2022/11/30 03:29:18;;;;;;;3.28;2.97;;;6.00;99.90;;;;;;5027299;28;20204;-70
2022/11/30 03:31:45;;;;;;;5.20;4.70;;;6.00;99.90;;;;;;5027166;28;20192;-72
2022/11/30 03:34:14;;;;;;;5.82;4.35;;;6.00;99.90;;;;;;5027354;28;20278;-71
2022/11/30 03:36:42;;;;;;;3.17;2.63;;;5.90;99.90;;;;;;5008383;28;20541;-71
2022/11/30 03:39:11;;;;;;;7.25;3.15;;;6.00;99.90;;;;;;5026879;28;20625;-71
2022/11/30 03:41:38;;;;;;;8.45;3.20;;;6.00;99.90;;;;;;5026818;28;20200;-71
2022/11/30 03:44:06;;;;;;;4.45;3.55;;;6.00;99.90;;;;;;5030532;28;20267;-71
2022/11/30 03:46:34;;;;;;;7.07;3.65;;;6.00;99.90;;;;;;5030566;28;20282;-72
2022/11/30 03:49:02;;;;;;;9.20;4.15;;;6.00;99.90;;;;;;5030594;28;20211;-71
2022/11/30 03:51:31;;;;;;;6.55;3.90;;;6.00;99.90;;;;;;5012205;28;20215;-71
2022/11/30 03:53:59;;;;;;;4.50;2.92;;;6.00;99.90;;;;;;5030510;28;20197;-71
2022/11/30 03:56:27;;;;;;;4.82;4.32;;;6.00;99.90;;;;;;5030451;28;20259;-71
2022/11/30 03:58:55;;;;;;;4.43;3.92;;;6.00;99.90;;;;;;5030622;28;20614;-72
2022/11/30 04:01:23;;;;;;;4.55;2.65;;;6.00;99.90;;;;;;5030491;28;20336;-72
2022/11/30 04:03:50;;;;;;;8.13;3.33;;;6.10;99.90;;;;;;5029366;28;20193;-72
2022/11/30 04:06:19;;;;;;;3.88;2.42;;;6.10;99.90;;;;;;5030217;28;20212;-71
2022/11/30 04:08:47;;;;;;;3.30;3.00;;;6.00;99.90;;;;;;5030154;28;20563;-71
2022/11/30 04:11:15;;;;;;;3.85;3.42;;;6.00;99.90;;;;;;5030541;28;20307;-71
2022/11/30 04:13:43;;;;;;;6.35;3.20;;;6.00;99.90;;;;;;5030430;28;20200;-71
2022/11/30 04:16:10;;;;;;;4.50;2.83;;;6.00;99.90;;;;;;5030480;28;20219;-71
2022/11/30 04:18:38;;;;;;;3.58;2.75;;;6.10;99.90;;;;;;5029068;28;20610;-72
2022/11/30 04:21:06;;;;;;;5.78;3.65;;;6.00;99.90;;;;;;5030033;28;20552;-71
2022/11/30 04:23:35;;;;;;;4.22;3.38;;;6.00;99.90;;;;;;5029732;28;20209;-71
2022/11/30 04:26:05;;;;;;;6.45;3.08;;;6.00;99.90;;;;;;5030132;28;20302;-71
2022/11/30 04:28:32;;;;;;;4.05;2.85;;;6.00;99.90;;;;;;5029569;28;20205;-72
2022/11/30 04:30:59;;;;;;;5.00;3.70;;;5.90;99.90;;;;;;5029633;28;20193;-71
2022/11/30 04:33:27;;;;;;;3.78;3.45;;;5.90;99.90;;;;;;5030096;28;20204;-72
2022/11/30 04:35:56;;;;;;;8.20;4.65;;;5.90;99.90;;;;;;5029939;28;20598;-71
2022/11/30 04:38:23;;;;;;;5.45;3.00;;;5.90;99.90;;;;;;5029430;28;20295;-71
2022/11/30 04:40:50;;;;;;;4.10;3.05;;;6.00;99.90;;;;;;5029365;28;20292;-71
2022/11/30 04:43:18;;;;;;;3.65;3.30;;;5.90;99.90;;;;;;5029463;28;20288;-71
2022/11/30 04:45:46;;;;;;;4.13;3.78;;;6.10;99.90;;;;;;5029149;28;20197;-71
2022/11/30 04:48:13;;;;;;;6.60;3.80;;;5.80;99.90;;;;;;5029418;28;20271;-73
2022/11/30 04:50:40;;;;;;;2.58;2.17;;;5.80;99.90;;;;;;5029279;28;20196;-71
2022/11/30 04:53:07;;;;;;;4.38;3.97;;;5.90;99.90;;;;;;5029636;28;20219;-71
2022/11/30 04:55:34;;;;;;;3.72;3.33;;;5.90;99.90;;;;;;5028027;28;20614;-71
2022/11/30 04:58:01;;;;;;;6.00;2.85;;;5.90;99.90;;;;;;5029062;28;20208;-73
2022/11/30 05:00:29;;;;;;;3.80;3.50;;;5.90;99.90;;;;;;5029238;28;20234;-71
2022/11/30 05:02:56;;;;;;;9.38;3.70;;;5.90;99.90;;;;;;5029154;28;20200;-72
2022/11/30 05:05:23;;;;;;;6.45;4.38;;;5.90;99.90;;;;;;5028248;28;20208;-71
2022/11/30 05:07:50;;;;;;;2.45;2.28;;;6.00;99.90;;;;;;5020500;28;20601;-71
2022/11/30 05:10:17;;;;;;;10.07;2.25;;;5.90;99.90;;;;;;5028189;28;20207;-71
2022/11/30 05:12:44;;;;;;;3.50;2.97;;;6.10;99.90;;;;;;5026872;28;20220;-71
2022/11/30 05:15:11;;;;;;;5.03;4.63;;;5.90;99.90;;;;;;5028411;28;20193;-71
2022/11/30 05:17:39;;;;;;;2.25;2.00;;;5.90;99.90;;;;;;5027613;28;20208;-72
2022/11/30 05:20:07;;;;;;;6.07;3.65;;;6.00;99.90;;;;;;5027894;28;20625;-71
2022/11/30 05:22:35;;;;;;;3.10;2.78;;;5.90;99.90;;;;;;5028241;28;20303;-71
2022/11/30 05:25:02;;;;;;;4.72;4.05;;;5.90;99.90;;;;;;5027344;28;20266;-71
2022/11/30 05:27:29;;;;;;;6.95;4.13;;;6.00;99.90;;;;;;5027441;28;20697;-71
2022/11/30 05:29:55;;;;;;;4.90;3.88;;;5.90;99.90;;;;;;5027642;28;20197;-71
2022/11/30 05:32:22;;;;;;;4.90;3.67;;;6.00;99.90;;;;;;5028131;28;20195;-71
2022/11/30 05:34:50;;;;;;;6.22;4.05;;;6.00;99.90;;;;;;5027445;28;20199;-71
2022/11/30 05:37:17;;;;;;;3.05;2.30;;;5.90;99.90;;;;;;5027353;28;20286;-71
2022/11/30 05:39:44;;;;;;;10.85;3.38;;;5.90;99.90;;;;;;5024000;28;20511;-71
2022/11/30 05:42:11;;;;;;;3.85;2.95;;;5.90;99.90;;;;;;5019269;28;20676;-73
2022/11/30 05:44:38;;;;;;;6.18;4.35;;;6.00;99.90;;;;;;5021860;28;20284;-71
2022/11/30 05:47:05;;;;;;;6.65;3.42;;;6.00;99.90;;;;;;5019370;28;20225;-72
2022/11/30 05:49:31;;;;;;;5.07;4.53;;;6.00;99.90;;;;;;5021164;28;20196;-70
2022/11/30 05:51:59;;;;;;;7.50;3.03;;;6.00;99.90;;;;;;5026006;28;20199;-71
2022/11/30 05:54:26;;;;;;;6.07;2.78;;;5.90;99.90;;;;;;5027857;28;20648;-70
2022/11/30 05:56:53;;;;;;;9.07;3.55;;;5.90;99.90;;;;;;5025482;28;20671;-71
2022/11/30 05:59:20;;;;;;;5.63;2.35;;;5.90;99.90;;;;;;5026634;28;20207;-70
2022/11/30 06:01:47;;;;;;;4.30;3.00;;;6.00;99.90;;;;;;5026995;28;20209;-72
2022/11/30 06:04:13;;;;;;;5.38;3.88;;;6.00;99.90;;;;;;5025547;28;20204;-70
2022/11/30 06:06:40;;;;;;;3.17;2.37;;;6.00;99.90;;;;;;4988955;28;1057669;-71
2022/11/30 06:09:08;;;;;;;3.20;2.13;;;6.00;99.90;;;;;;5027235;28;20201;-69
2022/11/30 06:11:35;;;;;;;4.38;2.67;;;6.00;99.90;;;;;;5027603;28;20209;-72
2022/11/30 06:14:02;;;;;;;2.28;2.17;;;5.90;99.90;;;;;;5027439;28;20764;-70
2022/11/30 06:16:29;;;;;;;6.97;5.38;;;6.00;99.90;;;;;;5027237;28;20242;-70
2022/11/30 06:18:55;;;;;;;6.20;2.97;;;6.00;99.90;;;;;;5027521;28;20200;-71
2022/11/30 06:21:22;;;;;;;4.00;3.65;;;5.90;99.90;;;;;;5017523;28;20201;-71
2022/11/30 06:23:49;;;;;;;5.18;3.22;;;6.00;99.90;;;;;;5026668;28;20199;-72
2022/11/30 06:26:17;;;;;;;3.35;3.05;;;6.00;99.90;;;;;;5027464;28;20197;-71
2022/11/30 06:28:44;;;;;;;3.50;2.38;;;6.00;99.90;;;;;;5026685;28;20722;-72
2022/11/30 06:31:11;;;;;;;3.03;2.70;;;6.00;99.90;;;;;;5026670;28;20216;-73
2022/11/30 06:33:37;;;;;;;6.55;2.03;;;6.00;99.90;;;;;;5026266;28;20196;-70
2022/11/30 06:36:05;;;;;;;2.42;2.10;;;6.00;99.90;;;;;;5026699;28;20196;-72
2022/11/30 06:38:31;;;;;;;8.77;5.10;;;6.00;99.90;;;;;;5026652;28;20754;-72
2022/11/30 06:41:04;;;;;;;3.35;2.60;;;6.00;99.90;;;;;;5027482;28;20200;-72
2022/11/30 06:43:34;;;;;;;4.32;2.75;;;6.00;99.90;;;;;;5027285;28;20197;-71
2022/11/30 06:46:02;;;;;;;3.92;3.53;;;6.00;99.90;;;;;;5027496;28;20247;-72
2022/11/30 06:48:29;;;;;;;4.32;3.40;;;6.00;99.90;;;;;;5025946;28;22600;-73
2022/11/30 06:50:56;;;;;;;3.35;3.05;;;6.00;99.90;;;;;;5027144;28;20663;-73
2022/11/30 06:53:22;;;;;;;4.97;3.80;;;6.10;99.90;;;;;;5027583;28;20207;-72
2022/11/30 06:55:49;;;;;;;7.10;5.35;;;6.10;99.90;;;;;;5027165;28;20624;-72
2022/11/30 06:58:16;;;;;;;3.97;3.35;;;6.00;99.90;;;;;;5025958;28;20559;-73
2022/11/30 07:00:44;;;;;;;5.85;3.78;;;6.10;99.90;;;;;;5026865;28;20197;-72
2022/11/30 07:03:12;;;;;;;4.78;3.70;;;6.10;99.90;;;;;;5026496;28;20200;-72
2022/11/30 07:05:42;;;;;;;6.03;3.60;;;6.10;99.90;;;;;;5026296;28;20254;-73
2022/11/30 07:08:09;;;;;;;4.47;3.10;;;6.00;99.90;;;;;;5026132;28;20231;-72
2022/11/30 07:10:39;;;;;;;3.30;2.80;;;6.10;99.90;;;;;;5026458;28;20201;-73
2022/11/30 07:13:09;;;;;;;5.75;4.00;;;6.10;99.90;;;;;;5026666;28;20677;-72
2022/11/30 07:15:36;;;;;;;6.32;3.80;;;6.10;99.90;;;;;;5026206;28;20193;-73
2022/11/30 07:18:04;;;;;;;7.88;4.50;;;6.10;99.90;;;;;;5027512;28;20211;-72
2022/11/30 07:20:31;;;;;;;4.68;3.22;;;6.10;99.90;;;;;;5030280;28;20906;-73
2022/11/30 07:26:05;;;;;;;10.98;5.35;;;6.20;99.90;;;;;;5030473;28;20197;-72
2022/11/30 07:28:29;;;;;;;6.30;3.40;;;6.10;99.90;;;;;;5029145;28;20575;-72
2022/11/30 07:30:56;;;;;;;6.75;3.22;;;6.20;99.90;;;;;;5030307;28;20202;-72
2022/11/30 07:33:24;;;;;;;4.05;3.30;;;6.20;99.90;;;;;;5031225;28;20368;-71
2022/11/30 07:35:52;;;;;;;2.60;2.45;;;6.20;99.90;;;;;;5011270;28;20292;-72
2022/11/30 07:38:19;;;;;;;4.63;3.90;;;6.20;99.90;;;;;;5012682;28;20207;-72
2022/11/30 07:40:46;;;;;;;8.13;4.68;;;6.20;99.90;;;;;;5030656;28;20283;-73
2022/11/30 07:43:13;;;;;;;11.43;4.10;;;6.30;99.90;;;;;;5029747;28;20295;-72
2022/11/30 07:45:40;;;;;;;8.68;4.15;;;6.30;99.90;;;;;;5030299;28;20678;-72
2022/11/30 07:48:08;;;;;;;4.07;3.50;;;6.30;99.90;;;;;;5030205;28;20636;-73
2022/11/30 07:50:36;;;;;;;7.10;3.75;;;6.40;99.90;;;;;;5030848;28;20247;-72
2022/11/30 07:53:03;;;;;;;5.32;3.15;;;6.40;99.90;;;;;;5030072;28;20211;-72
2022/11/30 07:55:31;;;;;;;7.68;4.50;;;6.50;99.90;;;;;;5031282;28;20287;-73
2022/11/30 07:57:58;;;;;;;8.75;4.20;;;6.50;99.90;;;;;;5030361;28;20207;-72
2022/11/30 08:00:24;;;;;;;8.30;4.05;;;6.40;99.90;;;;;;5031045;28;20229;-72
2022/11/30 08:02:51;;;;;;;7.55;3.80;;;6.40;99.90;;;;;;5028929;28;20573;-73
2022/11/30 08:05:18;;;;;;;3.30;3.00;;;6.30;99.90;;;;;;5030292;28;20304;-73
2022/11/30 08:07:50;;;;;;;4.88;3.38;;;6.40;99.90;;;;;;5028752;28;20323;-71
2022/11/30 08:10:17;;;;;;;4.18;3.38;;;6.40;99.90;;;;;;5030374;28;20204;-72
2022/11/30 08:12:44;;;;;;;8.75;3.80;;;6.40;99.90;;;;;;5030533;28;20207;-72
2022/11/30 08:15:11;;;;;;;5.10;4.50;;;6.40;99.90;;;;;;5030476;28;20215;-72
2022/11/30 08:20:22;;;;;;;5.05;3.90;;;6.40;99.90;;;;;;5084553;28;21168;-71
2022/11/30 08:22:50;;;;;;;9.30;5.53;;;6.40;99.90;;;;;;5085157;28;20198;-72
2022/11/30 08:25:17;;;;;;;4.00;2.10;;;6.50;99.90;;;;;;5084867;28;20730;-72
2022/11/30 08:27:44;;;;;;;15.35;4.43;;;6.50;99.90;;;;;;5084203;28;20970;-70
2022/11/30 08:30:11;;;;;;;3.97;3.30;;;6.50;99.90;;;;;;5084590;28;20213;-71
2022/11/30 08:32:38;;;;;;;3.60;3.30;;;6.60;99.90;;;;;;5084042;28;20290;-72
2022/11/30 08:35:06;;;;;;;4.22;3.83;;;6.60;99.90;;;;;;5084332;28;20209;-72
2022/11/30 08:37:36;;;;;;;5.25;3.35;;;6.60;99.90;;;;;;5084203;28;20194;-72
2022/11/30 08:40:03;;;;;;;3.00;2.53;;;6.60;99.90;;;;;;5084556;28;20253;-72
2022/11/30 08:42:29;;;;;;;5.15;3.75;;;6.60;99.90;;;;;;5084589;28;20213;-72
2022/11/30 08:44:56;;;;;;;8.60;4.32;;;6.50;99.90;;;;;;5084492;28;20204;-71
2022/11/30 08:47:23;;;;;;;3.50;3.20;;;6.40;99.90;;;;;;5081705;28;20201;-72
2022/11/30 08:49:50;;;;;;;5.18;4.13;;;6.50;99.90;;;;;;5084590;28;20294;-70
2022/11/30 08:52:16;;;;;;;7.35;4.75;;;6.50;99.90;;;;;;5084251;28;20202;-72
2022/11/30 08:54:46;;;;;;;8.02;4.15;;;6.40;99.90;;;;;;5084867;28;20191;-72
2022/11/30 08:57:13;;;;;;;7.10;4.07;;;6.50;99.90;;;;;;5083445;28;20198;-72
2022/11/30 08:59:39;;;;;;;6.07;3.28;;;6.40;99.90;;;;;;5083410;28;20309;-72
2022/11/30 09:02:06;;;;;;;8.88;3.75;;;6.40;99.90;;;;;;5084200;28;20198;-71
2022/11/30 09:04:33;;;;;;;10.35;6.15;;;6.50;99.90;;;;;;5084232;28;20297;-72
2022/11/30 09:07:00;;;;;;;5.30;3.85;;;6.40;99.90;;;;;;5083640;28;20211;-72
2022/11/30 09:09:27;;;;;;;5.07;2.45;;;6.40;99.90;;;;;;5084120;28;20685;-72
2022/11/30 09:11:55;;;;;;;9.37;6.00;;;6.40;99.90;;;;;;5084408;28;20218;-72
2022/11/30 09:14:22;;;;;;;5.63;4.13;;;6.40;99.90;;;;;;5083209;28;20647;-72
2022/11/30 09:16:49;;;;;;;3.15;2.95;;;6.50;99.90;;;;;;5083411;28;20191;-72
2022/11/30 09:19:16;;;;;;;3.92;2.78;;;6.50;99.90;;;;;;5083497;28;20226;-72
2022/11/30 09:21:42;;;;;;;6.20;3.60;;;6.60;99.90;;;;;;5083883;28;20203;-72
2022/11/30 09:24:10;;;;;;;8.37;3.33;;;6.60;99.90;;;;;;5083779;28;20733;-70
2022/11/30 09:26:36;;;;;;;8.83;3.60;;;6.70;99.90;;;;;;5082923;28;20625;-72
2022/11/30 09:29:05;;;;;;;4.53;3.20;;;6.70;99.90;;;;;;5083170;28;20744;-72
2022/11/30 09:31:32;;;;;;;5.90;3.60;;;6.70;99.90;;;;;;5071028;28;20623;-72
2022/11/30 09:33:59;;;;;;;2.73;2.50;;;6.80;99.90;;;;;;5069920;28;20682;-71
2022/11/30 09:36:27;;;;;;;8.47;3.20;;;6.80;99.90;;;;;;5070032;28;20623;-72
2022/11/30 09:38:56;;;;;;;3.97;3.57;;;6.80;99.90;;;;;;5070238;28;20645;-72
2022/11/30 09:41:52;;;;;;;6.37;3.73;;;6.80;99.90;;;;;;5069637;28;20649;-72
2022/11/30 09:44:28;;;;;;;4.10;3.13;;;6.80;99.90;;;;;;5069674;28;21198;-72
2022/11/30 09:47:02;;;;;;;8.30;4.60;;;6.80;99.90;;;;;;5069468;28;20694;-72
2022/11/30 09:49:31;;;;;;;7.88;4.65;;;6.80;99.90;;;;;;5069835;28;20609;-72
2022/11/30 09:52:03;;;;;;;3.97;2.77;;;6.80;99.90;;;;;;5069477;28;20209;-72
2022/11/30 09:54:36;;;;;;;9.33;3.33;;;6.80;99.90;;;;;;5069822;28;20625;-72
2022/11/30 09:57:12;;;;;;;3.60;2.70;;;6.80;99.90;;;;;;5069196;28;21162;-72
2022/11/30 09:59:47;;;;;;;6.78;4.43;;;6.80;99.90;;;;;;5069371;28;21236;-72
2022/11/30 10:02:17;;;;;;;3.50;3.00;;;6.80;99.90;;;;;;5068746;28;20195;-71
2022/11/30 10:04:44;;;;;;;10.20;3.97;;;6.90;99.90;;;;;;5069724;28;20969;-72
2022/11/30 10:07:24;;;;;;;5.83;4.10;;;6.90;99.90;;;;;;5068961;28;20756;-71
2022/11/30 10:10:01;;;;;;;5.70;3.17;;;6.90;99.90;;;;;;5069505;28;20621;-72
2022/11/30 10:12:34;;;;;;;3.40;3.10;;;7.00;99.90;;;;;;5069538;28;20621;-72
2022/11/30 10:15:14;;;;;;;7.20;2.93;;;7.00;99.90;;;;;;5069491;28;20720;-72
2022/11/30 10:17:51;;;;;;;4.90;3.50;;;7.00;99.90;;;;;;5068521;28;20617;-71
2022/11/30 10:20:51;;;;;;;6.90;3.50;;;7.00;99.90;;;;;;5069362;28;20767;-72
2022/11/30 10:23:32;;;;;;;4.57;4.20;;;7.10;99.90;;;;;;5067091;28;20630;-72
2022/11/30 10:26:06;;;;;;;9.77;4.47;;;7.20;99.90;;;;;;5069208;28;20716;-72
2022/11/30 10:28:42;;;;;;;3.33;2.60;;;7.20;99.90;;;;;;5068288;28;20624;-72
2022/11/30 10:31:13;;;;;;;4.93;2.80;;;7.30;99.90;;;;;;5069048;28;20629;-71
2022/11/30 10:33:45;;;;;;;4.67;3.53;;;7.20;99.90;;;;;;5068728;28;20614;-71
2022/11/30 10:36:15;;;;;;;7.20;3.60;;;7.20;99.90;;;;;;5069054;28;20842;-73
2022/11/30 10:38:46;;;;;;;3.20;2.90;;;7.20;99.90;;;;;;5068543;28;20725;-71
2022/11/30 10:41:16;;;;;;;5.90;4.03;;;7.20;99.90;;;;;;5068110;28;20625;-72
2022/11/30 10:43:46;;;;;;;3.53;3.00;;;7.20;99.90;;;;;;5066355;28;20716;-72
2022/11/30 10:46:21;;;;;;;6.87;3.73;;;7.40;99.90;;;;;;5068647;28;20724;-71
2022/11/30 10:48:51;;;;;;;5.07;2.73;;;7.40;99.90;;;;;;5069017;28;20624;-72
2022/11/30 10:51:18;;;;;;;8.70;2.80;;;7.30;99.90;;;;;;5068902;28;20975;-71
2022/11/30 10:53:45;;;;;;;5.60;4.10;;;7.30;99.90;;;;;;5068370;28;21308;-72
2022/11/30 10:56:13;;;;;;;5.57;3.00;;;7.20;99.90;;;;;;5068631;28;20626;-73
2022/11/30 10:58:50;;;;;;;5.03;2.27;;;7.20;99.90;;;;;;5067572;28;21266;-72
2022/11/30 11:01:33;;;;;;;6.77;3.93;;;7.20;99.90;;;;;;5050161;28;20625;-73
2022/11/30 11:04:14;;;;;;;6.43;3.10;;;7.10;99.90;;;;;;5068539;28;20708;-71
2022/11/30 11:06:45;;;;;;;6.25;2.95;;;7.00;99.90;;;;;;5067767;28;20631;-72
2022/11/30 11:09:40;;;;;;;6.57;3.40;;;7.10;99.90;;;;;;5068648;28;20261;-72
2022/11/30 11:12:15;;;;;;;9.57;2.93;;;7.00;99.90;;;;;;5032669;28;20637;-72
2022/11/30 11:14:42;;;;;;;6.80;4.80;;;7.00;99.90;;;;;;5067908;28;20716;-71
2022/11/30 11:17:22;;;;;;;6.20;3.03;;;7.00;99.90;;;;;;5066442;28;20631;-72
2022/11/30 11:19:50;;;;;;;4.30;2.83;;;7.00;99.90;;;;;;5067687;28;20669;-72
2022/11/30 11:22:19;;;;;;;3.10;2.60;;;7.00;99.90;;;;;;5068104;28;20992;-72
2022/11/30 11:24:47;;;;;;;6.70;3.40;;;7.00;99.90;;;;;;5067895;28;20630;-72
2022/11/30 11:27:27;;;;;;;1.90;1.67;;;7.00;99.90;;;;;;5067254;28;20729;-70
2022/11/30 11:30:07;;;;;;;2.88;2.20;;;7.00;99.90;;;;;;5067462;28;20620;-72
2022/11/30 11:32:35;;;;;;;5.13;3.60;;;7.00;99.90;;;;;;5067780;28;20769;-71
2022/11/30 11:35:03;;;;;;;3.37;3.07;;;7.00;99.90;;;;;;5068041;28;20626;-72
2022/11/30 11:37:32;;;;;;;2.70;2.20;;;7.00;99.90;;;;;;5067181;28;20629;-72
2022/11/30 11:40:02;;;;;;;4.77;2.00;;;7.00;99.90;;;;;;5067187;28;21307;-72
2022/11/30 11:42:32;;;;;;;8.30;2.67;;;7.00;99.90;;;;;;5066309;28;20633;-72
2022/11/30 11:45:00;;;;;;;9.83;4.03;;;7.10;99.90;;;;;;5067803;28;21244;-70
2022/11/30 11:47:33;;;;;;;2.70;2.40;;;7.00;99.90;;;;;;5066807;28;20616;-71
2022/11/30 11:50:26;;;;;;;3.40;3.10;;;6.90;99.90;;;;;;5067762;28;20802;-72
2022/11/30 11:53:21;;;;;;;3.97;3.20;;;7.00;99.90;;;;;;5066791;28;21554;-72
2022/11/30 11:55:58;;;;;;;5.17;3.40;;;7.00;99.90;;;;;;5067397;28;20741;-72
2022/11/30 11:58:37;;;;;;;5.43;2.27;;;7.10;99.90;;;;;;5066703;28;20628;-72
2022/11/30 12:01:09;;;;;;;5.87;2.10;;;7.10;99.90;;;;;;5046811;28;20711;-71
2022/11/30 12:03:41;;;;;;;2.20;1.80;;;7.10;99.90;;;;;;5047379;28;20628;-71
2022/11/30 12:06:14;;;;;;;1.90;1.80;;;7.10;99.90;;;;;;5047729;28;20627;-72
2022/11/30 12:08:46;;;;;;;4.37;2.87;;;7.10;99.90;;;;;;5047225;28;20981;-72
2022/11/30 12:11:17;;;;;;;3.70;2.50;;;7.10;99.90;;;;;;5047257;28;20622;-71
2022/11/30 12:13:46;;;;;;;2.37;2.17;;;7.00;99.90;;;;;;5047527;28;20618;-72
2022/11/30 12:16:35;;;;;;;2.90;2.60;;;7.10;99.90;;;;;;5047024;28;20635;-72
2022/11/30 12:19:13;;;;;;;4.80;2.27;;;7.10;99.90;;;;;;5046755;28;21214;-72
2022/11/30 12:21:50;;;;;;;4.43;2.90;;;7.10;99.90;;;;;;5046990;28;21504;-71
2022/11/30 12:24:52;;;;;;;3.23;2.40;;;7.10;99.90;;;;;;5047312;28;20667;-72
2022/11/30 12:27:30;;;;;;;5.93;3.53;;;7.10;99.90;;;;;;5052332;28;20632;-72
2022/11/30 12:30:08;;;;;;;5.83;2.83;;;7.10;99.90;;;;;;5066910;28;20613;-71
2022/11/30 12:32:54;;;;;;;2.33;1.60;;;7.20;99.90;;;;;;5067467;28;21011;-71
2022/11/30 12:35:29;;;;;;;6.17;3.33;;;7.20;99.90;;;;;;5067283;28;20630;-72
2022/11/30 12:38:11;;;;;;;3.40;2.77;;;7.20;99.90;;;;;;5066745;28;20621;-71
2022/11/30 12:40:52;;;;;;;7.20;3.70;;;7.20;99.90;;;;;;5066136;28;20659;-72
2022/11/30 12:43:31;;;;;;;4.60;3.10;;;7.20;99.90;;;;;;5066079;28;21061;-72
2022/11/30 12:46:06;;;;;;;7.77;3.93;;;7.20;99.90;;;;;;5067423;28;20613;-71
2022/11/30 12:48:41;;;;;;;4.57;1.70;;;7.20;99.90;;;;;;5066378;28;20625;-71
2022/11/30 12:51:16;;;;;;;7.30;3.70;;;7.20;99.90;;;;;;5066831;28;20624;-71
2022/11/30 12:53:50;;;;;;;3.37;2.77;;;7.10;99.90;;;;;;5067015;28;20624;-71
2022/11/30 12:56:29;;;;;;;3.30;3.03;;;7.20;99.90;;;;;;5066125;28;21308;-71
2022/11/30 12:59:05;;;;;;;2.70;2.13;;;7.10;99.90;;;;;;5064087;28;21243;-71
2022/11/30 13:01:52;;;;;;;2.43;2.23;;;7.20;99.90;;;;;;5050231;28;20669;-72
2022/11/30 13:04:24;;;;;;;3.00;2.73;;;7.20;99.90;;;;;;5067390;28;20990;-72
2022/11/30 13:06:55;;;;;;;3.83;2.87;;;7.10;99.90;;;;;;5067918;28;21036;-72
2022/11/30 13:09:28;;;;;;;6.50;3.57;;;7.10;99.90;;;;;;5070754;28;21193;-71
2022/11/30 13:12:01;;;;;;;8.87;3.30;;;7.00;99.90;;;;;;5070098;28;20634;-72
2022/11/30 13:14:30;;;;;;;2.80;2.03;;;7.00;99.90;;;;;;5070781;28;20635;-72
2022/11/30 13:17:01;;;;;;;3.67;3.40;;;7.00;99.90;;;;;;5069784;28;20624;-72